createdAt,value
2018-02-22T00:00:31.587Z,93.03
2018-02-22T00:02:59.759Z,103.70
2018-02-22T00:05:27.925Z,92.60
2018-02-22T00:07:56.860Z,95.83
2018-02-22T00:10:25.023Z,97.60
2018-02-22T00:12:53.199Z,109.30
2018-02-22T00:15:21.398Z,98.90
2018-02-22T00:17:49.566Z,92.27
2018-02-22T00:20:17.735Z,78.23
2018-02-22T00:22:45.912Z,97.10
2018-02-22T00:25:14.086Z,92.53
2018-02-22T00:27:42.259Z,78.97
2018-02-22T00:30:10.428Z,87.37
2018-02-22T00:32:38.594Z,77.00
2018-02-22T00:35:06.805Z,87.30
2018-02-22T00:37:35.005Z,93.20
2018-02-22T00:40:03.932Z,90.93
2018-02-22T00:42:32.135Z,80.43
2018-02-22T00:45:00.342Z,86.53
2018-02-22T00:47:29.303Z,78.13
2018-02-22T00:49:57.467Z,83.13
2018-02-22T00:52:25.678Z,86.50
2018-02-22T00:54:53.857Z,56.97
2018-02-22T00:57:22.801Z,54.73
2018-02-22T00:59:50.968Z,39.97
2018-02-22T01:02:19.149Z,42.90
2018-02-22T01:04:47.319Z,39.20
2018-02-22T01:07:15.514Z,38.97
2018-02-22T01:09:43.686Z,37.47
2018-02-22T01:12:11.879Z,39.63
2018-02-22T01:14:40.063Z,38.13
2018-02-22T01:17:08.245Z,38.87
2018-02-22T01:19:37.194Z,32.50
2018-02-22T01:22:05.394Z,34.70
2018-02-22T01:24:33.570Z,38.63
2018-02-22T01:27:01.745Z,39.57
2018-02-22T01:29:29.929Z,36.20
2018-02-22T01:31:58.102Z,30.70
2018-02-22T01:34:26.329Z,40.50
2018-02-22T01:36:54.490Z,38.93
2018-02-22T01:39:22.687Z,31.73
2018-02-22T01:41:50.866Z,31.80
2018-02-22T01:44:19.048Z,33.40
2018-02-22T01:46:47.233Z,33.77
2018-02-22T01:49:15.406Z,30.57
2018-02-22T01:51:43.586Z,34.83
2018-02-22T01:54:11.746Z,37.47
2018-02-22T01:56:39.910Z,33.70
2018-02-22T01:59:08.079Z,37.00
2018-02-22T02:01:36.243Z,38.27
2018-02-22T02:04:04.402Z,35.97
2018-02-22T02:06:32.602Z,39.67
2018-02-22T02:09:00.777Z,35.53
2018-02-22T02:11:28.934Z,34.30
2018-02-22T02:13:57.125Z,39.30
2018-02-22T02:16:25.286Z,37.80
2018-02-22T02:18:53.474Z,33.70
2018-02-22T02:21:21.677Z,36.60
2018-02-22T02:23:49.849Z,32.53
2018-02-22T02:26:18.021Z,31.83
2018-02-22T02:28:46.183Z,39.03
2018-02-22T02:31:14.391Z,35.53
2018-02-22T02:33:42.584Z,35.23
2018-02-22T02:36:11.559Z,34.10
2018-02-22T02:38:39.721Z,34.00
2018-02-22T02:41:07.906Z,36.30
2018-02-22T02:43:36.081Z,35.47
2018-02-22T02:46:04.246Z,34.23
2018-02-22T02:48:32.469Z,30.40
2018-02-22T02:51:00.681Z,31.20
2018-02-22T02:53:28.842Z,36.77
2018-02-22T02:55:57.015Z,33.40
2018-02-22T02:58:25.199Z,32.97
2018-02-22T03:00:53.366Z,32.00
2018-02-22T03:03:21.546Z,34.33
2018-02-22T03:05:49.752Z,33.90
2018-02-22T03:08:17.923Z,33.60
2018-02-22T03:10:46.103Z,34.63
2018-02-22T03:13:14.290Z,36.47
2018-02-22T03:15:43.259Z,34.47
2018-02-22T03:18:11.448Z,31.27
2018-02-22T03:20:39.646Z,34.33
2018-02-22T03:23:08.574Z,32.60
2018-02-22T03:25:36.741Z,37.77
2018-02-22T03:28:04.902Z,28.93
2018-02-22T03:30:33.098Z,29.30
2018-02-22T03:33:01.279Z,32.70
2018-02-22T03:35:29.474Z,35.17
2018-02-22T03:37:57.649Z,33.53
2018-02-22T03:40:25.810Z,35.20
2018-02-22T03:42:53.994Z,35.70
2018-02-22T03:45:22.190Z,28.73
2018-02-22T03:47:50.349Z,40.63
2018-02-22T03:50:18.534Z,29.97
2018-02-22T03:52:46.725Z,33.07
2018-02-22T03:55:15.658Z,35.23
2018-02-22T03:57:43.820Z,32.40
2018-02-22T04:00:12.065Z,33.77
2018-02-22T04:02:41.002Z,29.53
2018-02-22T04:05:09.194Z,30.03
2018-02-22T04:07:37.354Z,34.60
2018-02-22T04:10:05.511Z,33.67
2018-02-22T04:12:33.684Z,30.83
2018-02-22T04:15:01.857Z,31.50
2018-02-22T04:17:30.043Z,34.20
2018-02-22T04:19:58.256Z,28.40
2018-02-22T04:22:26.442Z,31.17
2018-02-22T04:24:54.619Z,33.23
2018-02-22T04:27:22.794Z,29.00
2018-02-22T04:29:50.958Z,35.17
2018-02-22T04:32:19.131Z,31.33
2018-02-22T04:34:47.322Z,30.70
2018-02-22T04:37:15.495Z,30.20
2018-02-22T04:39:44.416Z,29.83
2018-02-22T04:42:12.583Z,39.07
2018-02-22T04:44:41.529Z,30.90
2018-02-22T04:47:09.690Z,32.23
2018-02-22T04:49:37.868Z,33.00
2018-02-22T04:52:06.066Z,39.43
2018-02-22T04:54:34.245Z,42.37
2018-02-22T04:57:02.405Z,39.50
2018-02-22T04:59:30.583Z,30.07
2018-02-22T05:01:58.740Z,32.90
2018-02-22T05:04:26.947Z,34.00
2018-02-22T05:06:55.177Z,30.40
2018-02-22T05:09:23.349Z,37.13
2018-02-22T05:11:51.520Z,37.17
2018-02-22T05:14:19.682Z,35.90
2018-02-22T05:16:47.854Z,28.93
2018-02-22T05:19:16.019Z,31.00
2018-02-22T05:21:44.221Z,31.33
2018-02-22T05:24:12.383Z,32.33
2018-02-22T05:26:40.558Z,31.73
2018-02-22T05:29:08.784Z,33.33
2018-02-22T05:31:36.950Z,31.00
2018-02-22T05:34:05.170Z,32.50
2018-02-22T05:36:33.342Z,35.40
2018-02-22T05:39:02.338Z,34.70
2018-02-22T05:41:30.518Z,41.40
2018-02-22T05:43:58.707Z,34.67
2018-02-22T05:46:26.878Z,33.47
2018-02-22T05:48:55.148Z,33.60
2018-02-22T05:51:23.337Z,30.80
2018-02-22T05:53:52.387Z,34.00
2018-02-22T05:56:21.366Z,35.93
2018-02-22T05:58:49.530Z,36.93
2018-02-22T06:01:17.690Z,36.00
2018-02-22T06:03:45.871Z,35.47
2018-02-22T06:06:14.046Z,34.07
2018-02-22T06:08:42.265Z,34.30
2018-02-22T06:11:11.244Z,28.97
2018-02-22T06:13:39.438Z,32.87
2018-02-22T06:16:08.415Z,34.33
2018-02-22T06:18:36.641Z,36.23
2018-02-22T06:21:04.851Z,38.37
2018-02-22T06:23:33.179Z,41.40
2018-02-22T06:26:01.496Z,36.47
2018-02-22T06:28:30.049Z,40.10
2018-02-22T06:30:58.734Z,42.80
2018-02-22T06:33:27.499Z,46.47
2018-02-22T06:35:56.489Z,45.27
2018-02-22T06:38:25.458Z,48.83
2018-02-22T06:40:53.712Z,53.27
2018-02-22T06:43:21.930Z,54.27
2018-02-22T06:45:50.926Z,46.33
2018-02-22T06:48:19.968Z,52.07
2018-02-22T06:50:48.166Z,50.23
2018-02-22T06:53:16.355Z,53.17
2018-02-22T06:55:45.334Z,47.97
2018-02-22T06:58:13.535Z,50.07
2018-02-22T07:00:42.596Z,56.30
2018-02-22T07:03:10.810Z,53.60
2018-02-22T07:05:39.745Z,46.03
2018-02-22T07:08:07.975Z,50.77
2018-02-22T07:10:36.926Z,45.87
2018-02-22T07:13:05.155Z,43.20
2018-02-22T07:15:33.371Z,48.00
2018-02-22T07:18:01.558Z,43.20
2018-02-22T07:20:29.764Z,44.43
2018-02-22T07:22:58.709Z,39.00
2018-02-22T07:25:26.932Z,39.00
2018-02-22T07:27:55.906Z,36.67
2018-02-22T07:30:24.127Z,40.27
2018-02-22T07:32:52.327Z,38.73
2018-02-22T07:35:20.548Z,37.97
2018-02-22T07:37:49.519Z,40.27
2018-02-22T07:40:17.686Z,36.00
2018-02-22T07:42:45.991Z,38.73
2018-02-22T07:45:14.984Z,35.00
2018-02-22T07:47:43.184Z,37.97
2018-02-22T07:50:11.364Z,32.40
2018-02-22T07:52:39.557Z,34.80
2018-02-22T07:55:07.793Z,36.53
2018-02-22T07:57:36.727Z,32.97
2018-02-22T08:00:04.951Z,34.03
2018-02-22T08:02:33.922Z,33.73
2018-02-22T08:05:02.124Z,34.40
2018-02-22T08:07:31.119Z,30.87
2018-02-22T08:10:00.075Z,47.23
2018-02-22T08:12:28.259Z,36.13
2018-02-22T08:14:56.437Z,37.70
2018-02-22T08:17:24.631Z,34.00
2018-02-22T08:19:52.837Z,33.30
2018-02-22T08:22:21.075Z,30.73
2018-02-22T08:24:49.281Z,29.57
2018-02-22T08:27:17.455Z,32.40
2018-02-22T08:29:45.634Z,30.57
2018-02-22T08:32:13.868Z,30.27
2018-02-22T08:34:42.033Z,29.40
2018-02-22T08:37:10.226Z,29.30
2018-02-22T08:39:38.446Z,29.90
2018-02-22T08:42:06.634Z,35.77
2018-02-22T08:44:34.825Z,30.20
2018-02-22T08:47:02.998Z,38.60
2018-02-22T08:49:31.252Z,30.83
2018-02-22T08:51:59.509Z,36.57
2018-02-22T08:54:28.430Z,39.90
2018-02-22T08:56:56.601Z,40.90
2018-02-22T08:59:24.772Z,44.87
2018-02-22T09:01:52.930Z,42.00
2018-02-22T09:04:21.125Z,41.90
2018-02-22T09:06:49.302Z,41.60
2018-02-22T09:09:17.488Z,41.03
2018-02-22T09:11:45.657Z,42.90
2018-02-22T09:14:13.825Z,38.93
2018-02-22T09:16:42.025Z,47.70
2018-02-22T09:19:10.238Z,39.00
2018-02-22T09:21:39.210Z,39.57
2018-02-22T09:24:07.413Z,41.90
2018-02-22T09:26:35.596Z,43.40
2018-02-22T09:29:03.821Z,44.30
2018-02-22T09:31:32.043Z,43.97
2018-02-22T09:34:00.236Z,41.30
2018-02-22T09:36:28.499Z,46.07
2018-02-22T09:38:56.659Z,40.80
2018-02-22T09:41:25.596Z,45.70
2018-02-22T09:43:53.782Z,37.23
2018-02-22T09:46:21.958Z,39.50
2018-02-22T09:48:50.118Z,39.87
2018-02-22T09:51:18.304Z,46.00
2018-02-22T09:53:46.498Z,44.80
2018-02-22T09:56:14.672Z,42.70
2018-02-22T09:58:42.875Z,46.93
2018-02-22T10:01:11.827Z,47.53
2018-02-22T10:03:40.041Z,44.70
2018-02-22T10:06:09.006Z,43.83
2018-02-22T10:08:37.214Z,42.53
2018-02-22T10:11:06.162Z,42.93
2018-02-22T10:13:34.335Z,45.27
2018-02-22T10:16:02.531Z,42.40
2018-02-22T10:18:30.710Z,51.23
2018-02-22T10:20:59.689Z,42.67
2018-02-22T10:23:27.924Z,46.63
2018-02-22T10:25:56.106Z,46.97
2018-02-22T10:28:24.281Z,47.77
2018-02-22T10:30:52.441Z,45.80
2018-02-22T10:33:20.605Z,50.17
2018-02-22T10:35:48.802Z,45.70
2018-02-22T10:38:17.047Z,53.60
2018-02-22T10:40:46.053Z,43.27
2018-02-22T10:43:14.276Z,46.77
2018-02-22T10:45:42.484Z,47.43
2018-02-22T10:48:11.487Z,48.40
2018-02-22T10:50:40.443Z,46.57
2018-02-22T10:53:08.680Z,51.97
2018-02-22T10:55:36.862Z,43.93
2018-02-22T10:58:05.061Z,43.27
2018-02-22T11:00:38.708Z,43.60
2018-02-22T11:03:07.670Z,47.00
2018-02-22T11:05:35.875Z,50.03
2018-02-22T11:08:04.835Z,46.07
2018-02-22T11:10:33.018Z,40.80
2018-02-22T11:13:01.233Z,49.37
2018-02-22T11:15:29.458Z,51.97
2018-02-22T11:17:57.677Z,42.73
2018-02-22T11:20:25.866Z,49.67
2018-02-22T11:22:54.036Z,54.47
2018-02-22T11:25:22.222Z,54.00
2018-02-22T11:27:50.392Z,41.50
2018-02-22T11:30:18.632Z,49.03
2018-02-22T11:32:47.576Z,42.67
2018-02-22T11:35:15.757Z,44.43
2018-02-22T11:37:43.958Z,41.90
2018-02-22T11:40:12.218Z,46.30
2018-02-22T11:42:40.407Z,41.20
2018-02-22T11:45:08.954Z,47.83
2018-02-22T11:47:37.192Z,42.50
2018-02-22T11:50:06.150Z,45.10
2018-02-22T11:52:34.362Z,42.80
2018-02-22T11:55:03.304Z,44.10
2018-02-22T11:57:31.523Z,49.87
2018-02-22T12:00:00.489Z,46.20
2018-02-22T12:02:28.682Z,40.47
2018-02-22T12:04:56.948Z,50.00
2018-02-22T12:07:25.145Z,47.00
2018-02-22T12:09:54.140Z,48.03
2018-02-22T12:12:23.127Z,51.57
2018-02-22T12:14:52.084Z,46.87
2018-02-22T12:17:20.299Z,45.63
2018-02-22T12:19:49.319Z,46.00
2018-02-22T12:22:17.523Z,46.23
2018-02-22T12:24:45.713Z,49.77
2018-02-22T12:27:13.922Z,46.57
2018-02-22T12:29:42.926Z,49.80
2018-02-22T12:32:11.934Z,39.97
2018-02-22T12:34:40.180Z,44.60
2018-02-22T12:37:09.211Z,44.63
2018-02-22T12:39:37.439Z,47.23
2018-02-22T12:42:05.657Z,51.07
2018-02-22T12:44:33.898Z,45.70
2018-02-22T12:47:02.882Z,50.80
2018-02-22T12:49:31.070Z,45.90
2018-02-22T12:52:00.037Z,54.37
2018-02-22T12:54:28.204Z,55.13
2018-02-22T12:56:56.383Z,58.53
2018-02-22T12:59:24.551Z,60.73
2018-02-22T13:01:52.792Z,50.97
2018-02-22T13:04:20.957Z,57.73
2018-02-22T13:06:49.210Z,57.10
2018-02-22T13:09:18.162Z,54.93
2018-02-22T13:11:46.338Z,53.90
2018-02-22T13:14:14.496Z,59.07
2018-02-22T13:16:42.671Z,57.40
2018-02-22T13:19:10.890Z,57.17
2018-02-22T13:21:39.088Z,52.93
2018-02-22T13:24:08.015Z,51.30
2018-02-22T13:26:36.175Z,49.73
2018-02-22T13:29:04.361Z,49.30
2018-02-22T13:31:32.570Z,38.33
2018-02-22T13:34:19.321Z,41.40
2018-02-22T13:36:47.547Z,38.37
2018-02-22T13:39:15.738Z,38.47
2018-02-22T13:41:43.925Z,41.77
2018-02-22T13:44:30.465Z,41.77
2018-02-22T13:46:58.630Z,35.33
2018-02-22T13:52:29.152Z,37.00
2018-02-22T13:54:57.304Z,38.43
2018-02-22T13:57:25.508Z,35.10
2018-02-22T13:59:54.482Z,36.63
2018-02-22T14:02:26.618Z,35.10
2018-02-22T14:04:54.794Z,35.83
2018-02-22T14:07:22.993Z,35.73
2018-02-22T14:09:51.178Z,37.87
2018-02-22T14:12:19.394Z,32.77
2018-02-22T14:14:47.610Z,29.70
2018-02-22T14:17:15.876Z,38.47
2018-02-22T14:19:44.789Z,35.93
2018-02-22T14:22:13.034Z,39.87
2018-02-22T14:24:41.290Z,34.93
2018-02-22T14:27:09.487Z,30.83
2018-02-22T14:29:37.792Z,39.93
2018-02-22T14:32:06.019Z,35.10
2018-02-22T14:34:34.210Z,39.80
2018-02-22T14:37:02.411Z,35.03
2018-02-22T14:39:30.694Z,31.13
2018-02-22T14:41:58.953Z,33.57
2018-02-22T14:44:27.232Z,35.33
2018-02-22T14:46:55.454Z,40.87
2018-02-22T14:49:24.423Z,38.80
2018-02-22T14:51:52.670Z,35.87
2018-02-22T14:54:20.869Z,35.50
2018-02-22T14:56:49.088Z,31.20
2018-02-22T14:59:17.324Z,36.90
2018-02-22T15:01:45.528Z,38.80
2018-02-22T15:04:14.507Z,36.40
2018-02-22T15:06:42.814Z,39.90
2018-02-22T15:09:11.035Z,40.67
2018-02-22T15:11:39.346Z,35.70
2018-02-22T15:14:08.348Z,38.10
2018-02-22T15:16:37.345Z,38.70
2018-02-22T15:19:06.324Z,36.53
2018-02-22T15:21:35.305Z,36.10
2018-02-22T15:24:03.543Z,35.80
2018-02-22T15:26:31.764Z,41.13
2018-02-22T15:29:00.750Z,41.90
2018-02-22T15:31:28.961Z,44.90
2018-02-22T15:33:57.161Z,45.10
2018-02-22T15:36:25.381Z,41.23
2018-02-22T15:38:53.619Z,47.83
2018-02-22T15:41:21.829Z,42.40
2018-02-22T15:43:50.055Z,47.90
2018-02-22T15:46:18.279Z,37.73
2018-02-22T15:48:46.499Z,45.80
2018-02-22T15:51:14.727Z,45.27
2018-02-22T15:53:42.977Z,47.07
2018-02-22T15:56:11.175Z,49.40
2018-02-22T15:58:39.370Z,43.23
2018-02-22T16:01:08.435Z,47.07
2018-02-22T16:03:36.735Z,48.30
2018-02-22T16:06:05.033Z,43.93
2018-02-22T16:08:33.993Z,47.37
2018-02-22T16:11:02.272Z,48.10
2018-02-22T16:13:30.492Z,45.30
2018-02-22T16:15:58.701Z,45.83
2018-02-22T16:18:26.970Z,49.70
2018-02-22T16:20:55.170Z,45.60
2018-02-22T16:23:23.390Z,51.70
2018-02-22T16:25:51.671Z,47.17
2018-02-22T16:28:19.913Z,49.23
2018-02-22T16:30:48.163Z,45.17
2018-02-22T16:33:16.471Z,41.37
2018-02-22T16:35:44.808Z,46.10
2018-02-22T16:38:13.047Z,47.10
2018-02-22T16:40:41.247Z,47.20
2018-02-22T16:43:09.608Z,45.43
2018-02-22T16:45:37.889Z,52.13
2018-02-22T16:48:06.124Z,53.03
2018-02-22T16:50:34.406Z,49.83
2018-02-22T16:53:02.664Z,57.43
2018-02-22T16:55:31.009Z,49.27
2018-02-22T16:57:59.564Z,54.13
2018-02-22T17:00:28.743Z,55.00
2018-02-22T17:02:57.070Z,53.67
2018-02-22T17:05:25.450Z,56.90
2018-02-22T17:07:54.081Z,54.53
2018-02-22T17:10:22.481Z,53.63
2018-02-22T17:12:51.641Z,54.73
2018-02-22T17:15:20.780Z,52.57
2018-02-22T17:17:49.819Z,52.57
2018-02-22T17:20:18.099Z,60.53
2018-02-22T17:22:46.391Z,58.67
2018-02-22T17:25:14.679Z,53.90
2018-02-22T17:27:48.445Z,57.53
2018-02-22T17:30:22.205Z,52.20
2018-02-22T17:32:51.277Z,57.63
2018-02-22T17:48:42.575Z,58.38
2018-02-22T17:51:10.935Z,51.23
2018-02-22T17:53:39.313Z,58.80
2018-02-22T17:56:07.633Z,51.50
2018-02-22T17:58:36.061Z,60.87
2018-02-22T18:01:04.471Z,60.05
2018-02-22T18:03:32.765Z,51.75
2018-02-22T18:06:01.053Z,46.40
2018-02-22T18:08:30.176Z,54.47
2018-02-22T18:10:58.549Z,46.23
2018-02-22T18:13:26.829Z,49.42
2018-02-22T18:15:55.148Z,55.27
2018-02-22T18:18:23.514Z,49.13
2018-02-22T18:20:51.887Z,50.38
2018-02-22T18:23:20.207Z,52.43
2018-02-22T18:25:48.571Z,52.20
2018-02-22T18:28:16.845Z,53.30
2018-02-22T18:30:45.905Z,52.40
2018-02-22T18:33:14.315Z,52.90
2018-02-22T18:35:42.803Z,49.13
2018-02-22T18:38:11.892Z,52.47
2018-02-22T18:40:45.722Z,57.70
2018-02-22T18:43:19.462Z,48.20
2018-02-22T18:45:47.763Z,53.92
2018-02-22T18:48:16.022Z,49.90
2018-02-22T18:50:44.402Z,53.57
2018-02-22T18:53:12.649Z,48.90
2018-02-22T18:55:41.683Z,58.27
2018-02-22T18:58:10.010Z,50.67
2018-02-22T19:00:38.279Z,60.27
2018-02-22T19:03:06.547Z,49.07
2018-02-22T19:05:34.928Z,54.47
2018-02-22T19:08:03.192Z,50.97
2018-02-22T19:10:31.499Z,55.00
2018-02-22T19:12:59.797Z,53.20
2018-02-22T19:15:28.918Z,48.03
2018-02-22T19:17:57.296Z,52.50
2018-02-22T19:20:25.576Z,47.70
2018-02-22T19:22:53.874Z,47.53
2018-02-22T19:25:22.234Z,51.03
2018-02-22T19:27:50.435Z,46.47
2018-02-22T19:30:18.755Z,60.40
2018-02-22T19:32:47.744Z,51.53
2018-02-22T19:35:16.836Z,47.23
2018-02-22T19:37:45.896Z,52.25
2018-02-22T19:40:14.171Z,54.27
2018-02-22T19:42:42.473Z,52.53
2018-02-22T19:45:10.732Z,54.80
2018-02-22T19:47:39.050Z,52.63
2018-02-22T19:50:08.130Z,55.97
2018-02-22T19:52:36.390Z,53.63
2018-02-22T19:55:04.690Z,49.77
2018-02-22T19:57:32.949Z,49.83
2018-02-22T20:00:01.190Z,54.27
2018-02-22T20:02:29.508Z,48.10
2018-02-22T20:04:57.768Z,50.33
2018-02-22T20:07:26.047Z,54.57
2018-02-22T20:09:54.365Z,48.40
2018-02-22T20:12:23.446Z,54.30
2018-02-22T20:14:51.705Z,47.13
2018-02-22T20:17:20.007Z,45.80
2018-02-22T20:19:49.045Z,48.30
2018-02-22T20:22:17.363Z,47.50
2018-02-22T20:24:45.704Z,59.97
2018-02-22T20:27:13.962Z,49.37
2018-02-22T20:29:42.203Z,59.00
2018-02-22T20:32:10.543Z,51.87
2018-02-22T20:34:38.931Z,51.27
2018-02-22T20:37:07.287Z,47.93
2018-02-22T20:39:35.641Z,57.27
2018-02-22T20:42:04.740Z,49.47
2018-02-22T20:44:33.781Z,52.13
2018-02-22T20:47:02.099Z,51.57
2018-02-22T20:49:31.132Z,49.67
2018-02-22T20:51:59.520Z,52.50
2018-02-22T20:54:27.900Z,54.73
2018-02-22T20:56:56.258Z,57.33
2018-02-22T20:59:24.648Z,55.30
2018-02-22T21:01:52.916Z,54.47
2018-02-22T21:04:21.236Z,59.90
2018-02-22T21:06:49.497Z,49.07
2018-02-22T21:09:17.760Z,57.33
2018-02-22T21:11:46.018Z,51.17
2018-02-22T21:14:14.255Z,43.13
2018-02-22T21:16:42.569Z,48.93
2018-02-22T21:19:10.852Z,50.10
2018-02-22T21:21:39.073Z,51.57
2018-02-22T21:24:07.392Z,48.60
2018-02-22T21:26:35.713Z,56.23
2018-02-22T21:29:04.012Z,48.17
2018-02-22T21:31:32.290Z,48.27
2018-02-22T21:34:00.598Z,54.80
2018-02-22T21:36:28.872Z,50.72
2018-02-22T21:38:57.231Z,59.60
2018-02-22T21:41:26.269Z,57.80
2018-02-22T21:43:54.668Z,50.33
2018-02-22T21:46:22.960Z,54.70
2018-02-22T21:48:51.947Z,52.70
2018-02-22T21:51:20.347Z,49.47
2018-02-22T21:53:48.606Z,47.27
2018-02-22T21:56:16.857Z,52.43
2018-02-22T21:58:45.145Z,47.70
2018-02-22T22:01:13.425Z,48.00
2018-02-22T22:03:41.790Z,55.47
2018-02-22T22:06:10.068Z,48.80
2018-02-22T22:08:38.452Z,44.87
2018-02-22T22:11:06.770Z,48.75
2018-02-22T22:13:35.032Z,54.93
2018-02-22T22:16:03.303Z,43.03
2018-02-22T22:18:31.704Z,46.73
2018-02-22T22:20:59.962Z,49.27
2018-02-22T22:23:28.302Z,51.47
2018-02-22T22:25:56.561Z,52.30
2018-02-22T22:28:25.640Z,53.50
2018-02-22T22:30:53.887Z,49.90
2018-02-22T22:33:22.258Z,59.00
2018-02-22T22:35:50.539Z,55.00
2018-02-22T22:38:18.897Z,56.37
2018-02-22T22:40:47.137Z,66.37
2018-02-22T22:43:16.157Z,65.13
2018-02-22T22:45:44.476Z,73.60
2018-02-22T22:48:12.735Z,57.80
2018-02-22T22:50:40.955Z,64.07
2018-02-22T22:53:09.995Z,60.53
2018-02-22T22:55:38.274Z,55.00
2018-02-22T22:58:06.548Z,63.95
2018-02-22T23:00:34.794Z,56.97
2018-02-22T23:03:03.772Z,66.90
2018-02-22T23:05:32.811Z,58.60
2018-02-22T23:08:01.088Z,53.77
2018-02-22T23:10:29.326Z,50.27
2018-02-22T23:12:58.310Z,58.87
2018-02-22T23:15:27.343Z,57.40
2018-02-22T23:17:55.690Z,54.17
2018-02-22T23:20:24.730Z,47.73
2018-02-22T23:22:52.949Z,56.07
2018-02-22T23:25:21.219Z,66.20
2018-02-22T23:27:49.478Z,54.27
2018-02-22T23:30:17.708Z,52.10
2018-02-22T23:32:46.048Z,54.90
2018-02-22T23:35:14.291Z,49.17
2018-02-22T23:37:42.578Z,49.47
2018-02-22T23:40:11.706Z,59.23
2018-02-22T23:42:39.985Z,52.07
2018-02-22T23:45:08.999Z,46.47
2018-02-22T23:47:38.038Z,51.07
2018-02-22T23:50:06.264Z,50.50
2018-02-22T23:52:35.308Z,51.65
2018-02-22T23:55:03.565Z,47.30
2018-02-22T23:57:31.945Z,54.80
